Latest Weather Observations for Dunalley

IDT60801

Issued at 5:05 pm EST Saturday 26 July 2014 (issued every 30 minutes, with the page automatically refreshed every 10 minutes)

About weather observations | Map of weather stations | Latest weather observations for TAS | Other Formats
Station Details ID: 094254 Name: DUNALLEY (STROUD POINT) Lat: -42.90 Lon: 147.79 Height: 12.43 m
Data from the previous 72 hours. | See also: Recent months at Dunalley
Date/Time
EST
Temp
°C
App
Temp
°C
Dew
Point
Rel
Hum
%
Delta-T
°C
Wind Press
QNH
hPa
Press
MSL
hPa
Rain
since 9 am
mm
Dir
 
Spd
km/h
Gust
km/h
Spd
kts
Gust
kts
26/05:00pm 10.4 9.9 8.0 85 1.2 NE 0 0 0 0 1019.8 1019.9 0.0
26/04:30pm 11.4 11.0 8.1 80 1.6 NE 0 0 0 0 1019.7 - 0.0
26/04:00pm 11.9 10.3 8.2 78 1.8 NE 6 7 3 4 1019.7 1019.8 0.0
26/03:30pm 11.9 11.5 8.4 79 1.7 CALM 0 0 0 0 1019.4 - 0.0
26/03:00pm 12.5 11.9 8.8 78 1.8 NE 2 4 1 2 1019.3 1019.4 0.0
26/02:30pm 11.0 9.4 8.9 87 1.0 NE 7 9 4 5 1019.4 - 0.0
26/02:00pm 11.9 10.7 8.2 78 1.8 NE 4 4 2 2 1019.3 1019.4 0.0
26/01:30pm 11.1 10.7 8.3 83 1.4 CALM 0 2 0 1 1019.4 - 0.0
26/01:00pm 9.8 9.4 8.2 90 0.8 CALM 0 0 0 0 1019.8 1019.9 0.0
26/12:30pm 9.2 8.1 8.3 94 0.4 NE 4 4 2 2 1020.1 - 0.0
26/12:00pm 9.1 8.3 8.0 93 0.5 NE 2 4 1 2 1020.4 1020.5 0.0
26/11:30am 9.1 7.5 8.2 94 0.4 NE 6 7 3 4 1020.8 - 0.0
26/11:00am 9.1 7.3 8.0 93 0.5 NE 7 7 4 4 1020.9 1021.0 0.0
26/10:30am 9.1 7.5 8.0 93 0.5 NE 6 7 3 4 1020.9 - 0.0
26/10:00am 8.5 6.7 7.9 96 0.3 NE 7 7 4 4 1020.9 1021.0 0.0
26/09:30am 8.4 6.6 8.0 97 0.2 NE 7 7 4 4 1020.8 - 0.0
26/09:00am 8.2 6.6 7.8 97 0.2 NE 6 7 3 4 1020.8 1020.9 0.4
26/08:30am 8.0 5.8 7.7 98 0.1 NE 9 9 5 5 1020.5 - 0.4
26/08:00am 7.7 6.3 7.4 98 0.1 NE 4 7 2 4 1020.3 1020.4 0.4
26/07:30am 7.5 6.9 7.4 99 0.0 CALM 0 0 0 0 1019.9 - 0.4
26/07:00am 7.5 5.1 7.2 98 0.1 NE 9 11 5 6 1019.8 1019.9 0.4
26/06:30am 7.5 5.5 7.2 98 0.1 NE 7 9 4 5 1019.5 - 0.4
26/06:00am 7.9 7.0 7.6 98 0.1 NE 2 4 1 2 1019.4 1019.5 0.4
26/05:30am 7.7 7.1 7.4 98 0.1 CALM 0 0 0 0 1019.4 - 0.4
26/05:00am 7.9 6.2 7.5 97 0.2 NE 6 7 3 4 1019.5 1019.6 0.4
26/04:30am 8.3 6.7 8.0 98 0.1 NE 6 7 3 4 1019.2 - 0.2
26/04:00am 8.6 7.5 8.3 98 0.1 NE 4 4 2 2 1018.9 1019.0 0.2
26/03:30am 8.2 7.3 7.9 98 0.1 NE 2 4 1 2 1019.0 - 0.2
26/03:00am 7.6 5.6 7.2 97 0.2 NE 7 9 4 5 1019.1 1019.2 0.2
26/02:30am 7.6 5.8 7.2 97 0.2 NE 6 6 3 3 1019.1 - 0.2
26/02:00am 8.0 6.3 7.6 97 0.2 NE 6 7 3 4 1019.0 1019.1 0.2
26/01:30am 8.4 7.8 7.6 95 0.4 NE 0 0 0 0 1018.8 - 0.2
26/01:00am 8.9 7.7 8.0 94 0.4 NE 4 4 2 2 1018.7 1018.8 0.2
26/12:30am 9.0 7.3 8.2 95 0.4 NE 7 9 4 5 1018.8 - 0.2
26/12:00am 9.4 8.4 8.9 97 0.2 NE 4 7 2 4 1018.8 1018.9 0.2
 
Date/Time
EST
Temp
°C
App
Temp
°C
Dew
Point
Rel
Hum
%
Delta-T
°C
Wind Press
QNH
hPa
Press
MSL
hPa
Rain
since 9 am
mm
Dir
 
Spd
km/h
Gust
km/h
Spd
kts
Gust
kts
25/11:30pm 9.8 7.6 9.2 96 0.3 NE 11 13 6 7 1018.9 - 0.2
25/11:00pm 9.6 8.1 9.0 96 0.3 NE 7 9 4 5 1018.8 1018.9 0.2
25/10:30pm 9.3 6.5 8.5 95 0.4 NE 13 15 7 8 1018.7 - 0.2
25/10:00pm 9.9 6.8 9.0 94 0.4 NE 15 17 8 9 1018.8 1018.9 0.2
25/09:30pm 10.2 7.2 9.1 93 0.5 NE 15 19 8 10 1018.8 - 0.2
25/09:00pm 10.1 7.4 8.9 92 0.6 NE 13 15 7 8 1018.8 1018.9 0.2
25/08:30pm 9.9 8.3 8.8 93 0.5 NE 7 13 4 7 1018.9 - 0.2
25/08:00pm 10.1 6.3 9.0 93 0.5 NE 19 20 10 11 1018.4 1018.5 0.2
25/07:30pm 10.3 6.3 9.2 93 0.5 NE 20 20 11 11 1018.0 - 0.2
25/07:00pm 9.9 8.3 8.7 92 0.6 ENE 7 9 4 5 1018.2 1018.3 0.2
25/06:30pm 10.5 9.0 8.4 87 1.0 ENE 6 7 3 4 1017.7 - 0.2
25/06:00pm 10.7 8.7 8.8 88 0.9 ENE 9 13 5 7 1017.4 1017.5 0.2
25/05:30pm 11.2 8.3 9.5 89 0.9 ENE 15 20 8 11 1017.4 - 0.2
25/05:00pm 11.7 7.7 8.9 83 1.4 NE 20 24 11 13 1017.2 1017.3 0.2
25/04:30pm 12.0 7.7 9.2 83 1.4 NE 22 28 12 15 1017.2 - 0.2
25/04:00pm 12.6 7.3 9.8 83 1.4 NE 28 35 15 19 1017.0 1017.1 0.2
25/03:30pm 12.7 7.6 10.6 87 1.1 NE 28 33 15 18 1016.7 - 0.2
25/03:00pm 13.9 9.0 11.2 84 1.4 NE 28 35 15 19 1016.6 1016.7 0.2
25/02:30pm 15.0 11.2 11.2 78 2.0 NE 22 26 12 14 1016.4 - 0.2
25/02:00pm 13.3 10.8 11.2 87 1.1 NE 15 19 8 10 1016.5 1016.6 0.2
25/01:30pm 10.8 9.6 8.2 84 1.3 W 4 6 2 3 1016.7 - 0.2
25/01:00pm 10.9 9.6 7.6 80 1.6 W 4 6 2 3 1016.7 1016.8 0.2
25/12:30pm 10.4 8.9 8.5 88 0.9 W 6 7 3 4 1017.2 - 0.2
25/12:00pm 9.4 7.4 8.5 94 0.4 W 9 13 5 7 1017.5 1017.6 0.2
25/11:30am 8.9 7.6 7.8 93 0.5 W 4 7 2 4 1017.7 - 0.2
25/11:00am 8.8 7.0 8.0 95 0.4 W 7 9 4 5 1018.1 1018.2 0.2
25/10:30am 8.7 5.7 7.8 94 0.4 W 13 15 7 8 1018.3 - 0.2
25/10:00am 9.2 7.7 8.4 95 0.4 NW 6 6 3 3 1018.2 1018.3 0.2
25/09:30am 8.5 6.7 8.1 97 0.2 NNW 7 9 4 5 1018.0 - 0.2
25/09:00am 7.8 5.1 7.5 98 0.1 NNW 11 24 6 13 1018.1 1018.2 0.8
25/08:30am 7.3 5.5 7.2 99 0.0 N 6 9 3 5 1018.3 - 0.0
25/08:00am 6.9 4.8 6.8 99 0.0 N 7 9 4 5 1018.2 1018.3 0.0
25/07:30am 7.2 4.8 7.1 99 0.0 N 9 11 5 6 1017.5 - 0.0
25/07:00am 7.0 5.5 6.9 99 0.0 N 4 6 2 3 1017.2 1017.3 0.0
25/06:30am 7.1 5.1 7.0 99 0.0 N 7 9 4 5 1017.4 - 0.0
25/06:00am 7.3 5.9 7.2 99 0.0 N 4 6 2 3 1017.4 1017.5 0.0
25/05:30am 6.8 5.7 6.7 99 0.0 N 2 6 1 3 1017.1 - 0.0
25/05:00am 7.0 4.6 6.9 99 0.0 NNE 9 11 5 6 1017.4 1017.5 0.0
25/04:30am 6.7 5.9 6.6 99 0.0 CALM 0 0 0 0 1017.3 - 0.0
25/04:00am 6.8 4.9 6.7 99 0.0 NNE 6 7 3 4 1017.2 1017.3 0.0
25/03:30am 6.8 5.7 6.7 99 0.0 NNE 2 6 1 3 1017.4 - 0.0
25/03:00am 7.0 5.1 6.7 98 0.1 NNE 6 7 3 4 1017.5 1017.6 0.0
25/02:30am 7.2 5.2 7.1 99 0.0 NNE 7 9 4 5 1017.6 - 0.0
25/02:00am 6.9 5.4 6.8 99 0.0 NNE 4 6 2 3 1017.7 1017.8 0.0
25/01:30am 7.2 6.1 7.1 99 0.0 NNE 2 4 1 2 1017.7 - 0.0
25/01:00am 6.8 4.9 6.5 98 0.1 NNE 6 7 3 4 1017.9 1018.0 0.0
25/12:30am 7.5 5.5 7.2 98 0.1 NNE 7 9 4 5 1018.1 - 0.0
25/12:00am 7.9 6.0 7.5 97 0.2 NE 7 9 4 5 1018.3 1018.4 0.0
 
Date/Time
EST
Temp
°C
App
Temp
°C
Dew
Point
Rel
Hum
%
Delta-T
°C
Wind Press
QNH
hPa
Press
MSL
hPa
Rain
since 9 am
mm
Dir
 
Spd
km/h
Gust
km/h
Spd
kts
Gust
kts
24/11:30pm 8.6 8.1 8.0 96 0.3 CALM 0 4 0 2 1018.6 - 0.0
24/11:00pm 9.1 8.8 8.5 96 0.3 CALM 0 0 0 0 1018.7 1018.8 0.0
24/10:30pm 8.7 7.9 8.1 96 0.3 NE 2 4 1 2 1018.7 - 0.0
24/10:00pm 8.4 7.2 8.0 97 0.2 NE 4 7 2 4 1018.8 1018.9 0.0
24/09:30pm 8.0 6.2 7.2 95 0.4 NE 6 7 3 4 1018.7 - 0.0
24/09:00pm 9.2 7.7 8.3 94 0.4 NE 6 7 3 4 1018.7 1018.8 0.0
24/08:30pm 9.2 8.1 8.3 94 0.4 NE 4 4 2 2 1018.6 - 0.0
24/08:00pm 9.0 7.8 7.9 93 0.5 NE 4 6 2 3 1018.6 1018.7 0.0
24/07:30pm 9.0 7.7 7.8 92 0.6 NE 4 6 2 3 1018.4 - 0.0
24/07:00pm 9.4 7.6 7.8 90 0.8 NE 7 9 4 5 1018.3 1018.4 0.0
24/06:30pm 9.5 7.8 7.4 87 1.0 NE 6 7 3 4 1018.2 - 0.0
24/06:00pm 10.0 9.0 7.4 84 1.2 NE 2 4 1 2 1018.2 1018.3 0.0
24/05:30pm 10.3 9.0 7.5 83 1.3 NE 4 6 2 3 1018.1 - 0.0
24/05:00pm 10.7 8.8 7.4 80 1.6 NE 7 11 4 6 1018.0 1018.1 0.0
24/04:30pm 10.8 8.9 6.9 77 1.8 NE 6 7 3 4 1018.1 - 0.0
24/04:00pm 11.3 8.8 6.6 73 2.2 NE 9 13 5 7 1017.9 1018.0 0.0
24/03:30pm 11.4 7.8 6.7 73 2.2 NE 15 17 8 9 1017.8 - 0.0
24/03:00pm 11.7 8.5 6.8 72 2.3 NE 13 17 7 9 1017.7 1017.8 0.0
24/02:30pm 11.7 8.7 7.6 76 2.0 NE 13 17 7 9 1017.6 - 0.0
24/02:00pm 10.0 9.3 7.1 82 1.4 CALM 0 4 0 2 1017.8 1017.9 0.0
24/01:30pm 10.0 8.9 6.9 81 1.5 NE 2 4 1 2 1018.2 - 0.0
24/01:00pm 9.6 8.1 6.9 83 1.3 NE 4 6 2 3 1018.5 1018.6 0.0
24/12:30pm 9.0 7.3 5.9 81 1.4 NNE 4 6 2 3 1018.9 - 0.0
24/12:00pm 8.6 6.6 6.1 84 1.1 NE 6 7 3 4 1019.3 1019.4 0.0
24/11:30am 8.5 6.9 6.3 86 1.0 NE 4 6 2 3 1019.7 - 0.0
24/11:00am 8.3 6.7 6.4 88 0.9 NE 4 6 2 3 1020.1 1020.2 0.0
24/10:30am 7.7 6.0 6.0 89 0.8 NE 4 4 2 2 1020.3 - 0.0
24/10:00am 7.5 6.0 6.6 94 0.4 NE 4 4 2 2 1020.5 1020.6 0.0
24/09:30am 7.6 5.8 7.2 97 0.2 NE 6 7 3 4 1020.2 - 0.0
24/09:00am 6.8 5.1 6.1 95 0.3 NNE 4 6 2 3 1020.2 1020.3 0.2
24/08:30am 6.3 5.0 5.9 97 0.2 NNE 2 4 1 2 1019.8 - 0.2
24/08:00am 5.7 3.9 5.3 97 0.2 NNE 4 4 2 2 1019.9 1020.0 0.2
24/07:30am 4.8 3.6 4.5 98 0.1 CALM 0 0 0 0 1019.9 - 0.2
24/07:00am 5.0 3.1 4.7 98 0.1 NNE 4 4 2 2 1019.7 1019.8 0.2
24/06:30am 4.6 2.2 4.5 99 0.0 NNE 6 7 3 4 1019.6 - 0.2
24/06:00am 5.8 4.1 5.7 99 0.0 NNE 4 4 2 2 1019.7 1019.8 0.0
24/05:30am 5.0 2.7 4.9 99 0.0 NNE 6 6 3 3 1019.6 - 0.0
24/05:00am 4.7 3.5 4.6 99 0.0 CALM 0 0 0 0 1019.6 1019.7 0.0
24/04:30am 6.2 5.3 6.1 99 0.0 CALM 0 0 0 0 1019.5 - 0.0
24/04:00am 4.6 3.4 4.5 99 0.0 CALM 0 0 0 0 1019.4 1019.5 0.0
24/03:30am 6.7 5.9 6.6 99 0.0 CALM 0 0 0 0 1019.6 - 0.0
24/03:00am 6.6 5.8 6.5 99 0.0 CALM 0 2 0 1 1019.7 1019.8 0.0
24/02:30am 5.7 4.7 5.6 99 0.0 CALM 0 0 0 0 1020.0 - 0.0
24/02:00am 6.5 5.7 6.4 99 0.0 CALM 0 0 0 0 1019.9 1020.0 0.0
24/01:30am 7.1 6.4 6.8 98 0.1 CALM 0 0 0 0 1019.9 - 0.0
24/01:00am 7.0 6.2 6.4 96 0.3 CALM 0 0 0 0 1020.1 1020.2 0.0
24/12:30am 6.8 5.8 5.6 92 0.5 CALM 0 0 0 0 1020.4 - 0.0
24/12:00am 7.0 5.7 5.9 93 0.5 NNE 2 6 1 3 1020.5 1020.6 0.0
 
Date/Time
EST
Temp
°C
App
Temp
°C
Dew
Point
Rel
Hum
%
Delta-T
°C
Wind Press
QNH
hPa
Press
MSL
hPa
Rain
since 9 am
mm
Dir
 
Spd
km/h
Gust
km/h
Spd
kts
Gust
kts
23/11:30pm 6.8 4.5 5.9 94 0.4 NNE 7 7 4 4 1020.7 - 0.0
23/11:00pm 6.4 4.1 5.7 95 0.3 NNE 7 9 4 5 1021.0 1021.1 0.0
23/10:30pm 6.9 4.7 6.3 96 0.3 NE 7 9 4 5 1021.1 - 0.0
23/10:00pm 7.2 5.1 6.6 96 0.3 NE 7 9 4 5 1021.3 1021.4 0.0
23/09:30pm 7.0 4.4 6.3 95 0.3 NE 9 11 5 6 1021.4 - 0.0
23/09:00pm 7.4 4.6 6.8 96 0.3 NNE 11 15 6 8 1021.4 1021.5 0.0
23/08:30pm 7.8 4.7 7.1 95 0.3 NNE 13 15 7 8 1021.5 - 0.0
23/08:00pm 8.4 5.9 6.5 88 0.9 NE 9 13 5 7 1021.4 1021.5 0.0
23/07:30pm 8.1 4.8 6.2 88 0.9 NE 13 19 7 10 1021.4 - 0.0
23/07:00pm 8.7 4.8 7.3 91 0.7 NNE 17 20 9 11 1021.2 1021.3 0.0
23/06:30pm 7.9 5.6 5.7 86 1.0 NNE 7 9 4 5 1021.2 - 0.0
23/06:00pm 9.1 6.6 6.7 85 1.1 NNE 9 9 5 5 1021.3 1021.4 0.0
23/05:30pm 9.0 6.1 6.4 84 1.2 NNE 11 15 6 8 1021.2 - 0.0

Other Formats:

Comma delimited format used in spreadsheet applications
http://www.bom.gov.au/fwo/IDT60801/IDT60801.94951.axf

JavaScript Object Notation format (JSON) in row-major order
http://www.bom.gov.au/fwo/IDT60801/IDT60801.94951.json